East Dulwich, United Kingdom
Current Conditions -  °F | °C
As of 4:20 PM on Wednesday 22 Oct 2014 (Local Time) from EGLC Reporting Station
Few Clouds Few Clouds  
Wind Chill: 57°   Ceiling: Unl
Heat Index: 57°   Visibility: 6mi
Dew Point: 43°   Wind: 14mph
Humidity: 59%   Direction: 270°W
Pressure: 30.24"   Gusts: NA
Location:  51.45°N, 0.07°W
Report Text: EGLC 221520Z 27012KT 9999 FEW035 14/06 Q1024
Loading
Personal Weather Stations






























Interactive Weather Map
Tropical Storm Tracking
New forecast layout! Learn more

10-Day Weather Forecast

Advertisements
Track Severe Weather on mobile